Time;durP1;ratioP1;P1;durP2;ratioP2;P2;SDS_P1;SDS_P2;PMS_P1;PMS_P2;Temp;Humidity;BMP_temperature;BMP_pressure;BME280_temperature;BME280_humidity;BME280_pressure;Samples;Min_cycle;Max_cycle;Signal;HPM_P1;HPM_P2
2022/04/21 00:02:21;;;;;;;2.08;1.60;;;19.00;45.30;;;;;;4909230;28;99405;-70
2022/04/21 00:04:47;;;;;;;2.85;1.90;;;19.00;45.30;;;;;;4910264;28;99200;-69
2022/04/21 00:07:12;;;;;;;1.65;1.50;;;19.00;45.30;;;;;;4909798;28;99353;-70
2022/04/21 00:09:38;;;;;;;3.42;1.70;;;19.00;45.30;;;;;;4910220;28;99002;-69
2022/04/21 00:12:04;;;;;;;2.67;1.90;;;19.00;45.40;;;;;;4908608;28;99117;-70
2022/04/21 00:14:31;;;;;;;2.42;1.70;;;19.00;45.30;;;;;;4908352;28;99922;-69
2022/04/21 00:16:56;;;;;;;2.97;1.85;;;19.00;45.30;;;;;;4909060;28;99115;-69
2022/04/21 00:19:22;;;;;;;2.00;1.73;;;19.00;45.30;;;;;;4908715;28;100130;-69
2022/04/21 00:24:32;;;;;;;2.83;1.80;;;18.90;45.20;;;;;;4909750;28;98507;-68
2022/04/21 00:26:57;;;;;;;2.28;1.60;;;18.90;45.40;;;;;;4909058;28;103110;-70
2022/04/21 00:29:23;;;;;;;2.10;1.80;;;18.90;45.40;;;;;;4909106;28;99086;-70
2022/04/21 00:31:49;;;;;;;2.58;1.67;;;18.90;45.30;;;;;;4908313;28;101622;-70
2022/04/21 00:34:14;;;;;;;2.00;1.75;;;18.90;45.30;;;;;;4908943;28;99496;-70
2022/04/21 00:36:40;;;;;;;2.47;1.75;;;18.90;45.40;;;;;;4908694;28;99030;-70
2022/04/21 00:39:05;;;;;;;2.42;1.80;;;18.90;45.40;;;;;;4909426;28;99061;-69
2022/04/21 00:41:32;;;;;;;3.15;1.85;;;18.90;45.70;;;;;;4910084;28;108933;-69
2022/04/21 00:43:58;;;;;;;2.40;1.50;;;18.90;45.40;;;;;;4912691;28;99404;-70
2022/04/21 00:46:23;;;;;;;2.70;1.80;;;18.90;45.40;;;;;;4915399;28;98464;-70
2022/04/21 00:48:49;;;;;;;2.78;2.00;;;18.90;45.40;;;;;;4912168;28;98002;-69
2022/04/21 00:51:15;;;;;;;3.08;2.00;;;18.90;45.40;;;;;;4909593;28;99283;-68
2022/04/21 00:53:42;;;;;;;3.45;2.10;;;18.90;45.30;;;;;;4907982;28;98718;-70
2022/04/21 00:56:09;;;;;;;2.67;1.98;;;18.90;45.40;;;;;;4908784;28;99373;-69
2022/04/21 00:58:37;;;;;;;3.00;1.83;;;18.80;45.40;;;;;;4909192;28;98797;-69
2022/04/21 01:01:03;;;;;;;3.00;2.10;;;18.90;45.40;;;;;;4908392;28;99898;-71
2022/04/21 01:03:30;;;;;;;2.97;2.00;;;18.80;45.40;;;;;;4908050;28;99973;-70
2022/04/21 01:05:55;;;;;;;2.42;1.98;;;18.80;45.40;;;;;;4908486;28;98650;-69
2022/04/21 01:08:21;;;;;;;2.63;1.70;;;18.80;45.40;;;;;;4908625;28;98706;-70
2022/04/21 01:10:48;;;;;;;2.10;1.80;;;18.80;45.40;;;;;;4908124;28;100222;-69
2022/04/21 01:13:15;;;;;;;2.70;1.63;;;18.80;45.40;;;;;;4907993;28;100643;-69
2022/04/21 01:15:42;;;;;;;1.90;1.65;;;18.80;45.50;;;;;;4908657;28;99135;-70
2022/04/21 01:18:09;;;;;;;2.40;1.88;;;18.80;45.50;;;;;;4908653;28;99255;-69
2022/04/21 01:20:35;;;;;;;2.60;1.95;;;18.80;45.40;;;;;;4907663;28;101021;-69
2022/04/21 01:23:00;;;;;;;2.17;1.60;;;18.80;45.50;;;;;;4907896;28;99426;-69
2022/04/21 01:25:26;;;;;;;3.50;2.00;;;18.80;45.50;;;;;;4908510;28;99096;-69
2022/04/21 01:27:57;;;;;;;2.13;1.83;;;18.80;45.50;;;;;;4908046;28;99114;-70
2022/04/21 01:30:23;;;;;;;2.17;1.90;;;18.80;45.40;;;;;;4908617;28;100358;-70
2022/04/21 01:32:49;;;;;;;2.20;2.00;;;18.80;45.50;;;;;;4907864;28;99829;-69
2022/04/21 01:35:15;;;;;;;2.38;1.70;;;18.80;45.50;;;;;;4908078;28;98529;-69
2022/04/21 01:43:11;;;;;;;3.40;2.10;;;18.80;45.50;;;;;;4907836;28;98986;-69
2022/04/21 01:45:38;;;;;;;2.25;1.95;;;18.80;45.60;;;;;;4907686;28;99845;-69
2022/04/21 01:48:05;;;;;;;2.42;2.00;;;18.80;45.50;;;;;;4908223;28;98977;-69
2022/04/21 01:50:31;;;;;;;2.20;1.90;;;18.80;45.50;;;;;;4907471;28;100584;-70
2022/04/21 01:52:58;;;;;;;2.60;2.00;;;18.70;45.50;;;;;;4907241;28;98744;-70
2022/04/21 01:55:25;;;;;;;2.30;2.08;;;18.70;45.50;;;;;;4908140;28;99150;-70
2022/04/21 01:57:51;;;;;;;2.95;2.08;;;18.70;45.40;;;;;;4908179;28;98956;-70
2022/04/21 02:00:17;;;;;;;3.03;1.77;;;18.70;45.50;;;;;;4908184;28;100344;-70
2022/04/21 02:02:43;;;;;;;2.20;2.00;;;18.70;45.50;;;;;;4907575;28;99218;-70
2022/04/21 02:05:08;;;;;;;1.83;1.70;;;18.70;45.50;;;;;;4908484;28;98704;-70
2022/04/21 02:07:36;;;;;;;2.63;1.92;;;18.70;45.60;;;;;;4912750;28;98620;-70
2022/04/21 02:10:02;;;;;;;2.70;2.13;;;18.70;45.50;;;;;;4911562;28;101442;-70
2022/04/21 02:12:28;;;;;;;2.15;1.95;;;18.70;45.60;;;;;;4910908;28;102074;-70
2022/04/21 02:14:54;;;;;;;3.20;2.20;;;18.70;45.60;;;;;;4911146;28;98706;-70
2022/04/21 02:17:20;;;;;;;2.30;2.03;;;18.70;45.60;;;;;;4911556;28;99046;-71
2022/04/21 02:19:46;;;;;;;2.63;2.22;;;18.70;45.70;;;;;;4910929;28;99643;-70
2022/04/21 02:22:12;;;;;;;1.88;1.77;;;18.70;45.60;;;;;;4911252;28;98782;-70
2022/04/21 02:24:38;;;;;;;2.38;1.90;;;18.70;45.60;;;;;;4911870;28;99144;-71
2022/04/21 02:27:04;;;;;;;2.35;1.80;;;18.70;45.60;;;;;;4911178;28;98444;-71
2022/04/21 02:29:30;;;;;;;2.20;1.98;;;18.70;45.60;;;;;;4909676;28;99513;-71
2022/04/21 02:31:56;;;;;;;2.30;2.10;;;18.60;45.50;;;;;;4910467;28;100103;-71
2022/04/21 02:34:22;;;;;;;2.90;2.03;;;18.70;45.60;;;;;;4910471;28;99314;-70
2022/04/21 02:36:48;;;;;;;2.53;2.00;;;18.60;45.60;;;;;;4911296;28;98901;-70
2022/04/21 02:39:13;;;;;;;3.15;2.10;;;18.60;45.70;;;;;;4911413;28;100073;-70
2022/04/21 02:41:39;;;;;;;3.03;2.10;;;18.60;45.70;;;;;;4910973;28;99910;-71
2022/04/21 02:44:04;;;;;;;2.08;1.88;;;18.60;45.70;;;;;;4909493;28;98614;-72
2022/04/21 02:46:36;;;;;;;2.53;2.20;;;18.60;45.60;;;;;;4910151;28;99231;-70
2022/04/21 02:49:02;;;;;;;2.38;1.90;;;18.60;45.60;;;;;;4911226;28;100351;-70
2022/04/21 02:51:30;;;;;;;2.17;1.92;;;18.60;46.70;;;;;;4910837;28;99353;-69
2022/04/21 02:59:25;;;;;;;2.67;1.92;;;18.60;45.80;;;;;;4909988;28;99483;-71
2022/04/21 03:01:50;;;;;;;2.70;2.00;;;18.60;45.80;;;;;;4910959;28;100794;-71
2022/04/21 03:04:16;;;;;;;2.25;1.77;;;18.60;45.80;;;;;;4910860;28;99632;-71
2022/04/21 03:06:42;;;;;;;2.58;1.90;;;18.50;45.80;;;;;;4912106;28;98977;-70
2022/04/21 03:09:07;;;;;;;2.60;1.85;;;18.50;45.80;;;;;;4911096;28;111908;-71
2022/04/21 03:11:33;;;;;;;2.30;1.90;;;18.60;45.80;;;;;;4911617;28;99866;-70
2022/04/21 03:13:58;;;;;;;2.63;2.05;;;18.60;45.80;;;;;;4911810;28;98916;-71
2022/04/21 04:20:38;;;;;;;3.22;2.20;;;18.40;46.10;;;;;;4824513;23;101092;-69
2022/04/21 04:23:03;;;;;;;2.30;2.10;;;18.40;46.10;;;;;;4909622;28;99378;-69
2022/04/21 04:25:29;;;;;;;9.05;2.63;;;18.40;46.10;;;;;;4910692;28;98981;-70
2022/04/21 04:27:55;;;;;;;3.58;2.30;;;18.40;46.30;;;;;;4910494;28;100279;-70
2022/04/21 04:30:20;;;;;;;3.50;2.25;;;18.40;46.50;;;;;;4909002;28;101532;-71
2022/04/21 04:32:46;;;;;;;3.53;2.40;;;18.40;46.50;;;;;;4910903;28;98623;-69
2022/04/21 04:35:12;;;;;;;3.70;2.60;;;18.40;46.50;;;;;;4910800;28;98531;-70
2022/04/21 04:37:38;;;;;;;6.13;2.25;;;18.40;46.50;;;;;;4909405;28;100394;-70
2022/04/21 04:40:05;;;;;;;4.15;2.50;;;18.40;46.60;;;;;;4909878;28;100495;-70
2022/04/21 04:42:30;;;;;;;3.55;2.30;;;18.40;46.50;;;;;;4909858;28;100057;-70
2022/04/21 04:47:42;;;;;;;2.75;2.42;;;18.40;46.80;;;;;;4909116;28;99878;-70
2022/04/21 04:50:08;;;;;;;4.93;2.30;;;18.40;47.90;;;;;;4909675;28;99660;-70
2022/04/21 04:52:34;;;;;;;3.33;2.50;;;18.40;46.80;;;;;;4909315;28;98652;-71
2022/04/21 04:55:01;;;;;;;5.07;2.65;;;18.40;46.80;;;;;;4909960;28;99157;-70
2022/04/21 04:57:26;;;;;;;3.50;2.78;;;18.40;46.90;;;;;;4909609;28;99939;-70
2022/04/21 04:59:52;;;;;;;3.13;2.50;;;18.50;47.00;;;;;;4908616;28;100144;-70
2022/04/21 05:02:20;;;;;;;2.85;2.53;;;18.50;47.00;;;;;;4908903;28;99290;-71
2022/04/21 05:04:47;;;;;;;6.60;2.42;;;18.50;47.00;;;;;;4909655;28;98399;-70
2022/04/21 05:07:13;;;;;;;3.25;2.78;;;18.40;47.00;;;;;;4907610;28;100443;-70
2022/04/21 05:09:40;;;;;;;4.00;2.90;;;18.50;47.00;;;;;;4909934;28;99974;-70
2022/04/21 05:12:06;;;;;;;3.83;2.75;;;18.50;47.00;;;;;;4909653;28;99363;-69
2022/04/21 05:14:32;;;;;;;4.38;2.78;;;18.50;47.20;;;;;;4909998;28;98918;-70
2022/04/21 05:16:58;;;;;;;6.63;2.60;;;18.40;47.30;;;;;;4909664;28;100077;-70
2022/04/21 05:19:24;;;;;;;3.47;2.95;;;18.50;47.50;;;;;;4907580;28;101676;-70
2022/04/21 05:21:50;;;;;;;3.10;2.80;;;18.50;47.70;;;;;;4909288;28;98541;-69
2022/04/21 05:24:16;;;;;;;3.53;2.65;;;18.50;47.60;;;;;;4910254;28;98905;-70
2022/04/21 05:26:43;;;;;;;5.85;2.90;;;18.50;47.70;;;;;;4908666;28;101313;-69
2022/04/21 05:32:02;;;;;;;4.30;2.65;;;18.50;47.60;;;;;;4909636;28;98704;-70
2022/04/21 05:34:29;;;;;;;4.60;2.90;;;18.50;47.90;;;;;;4909374;28;98669;-69
2022/04/21 05:36:56;;;;;;;4.68;2.85;;;18.40;47.70;;;;;;4908456;28;99872;-70
2022/04/21 05:39:22;;;;;;;4.95;3.00;;;18.50;48.00;;;;;;4908157;28;99996;-71
2022/04/21 05:41:48;;;;;;;4.45;2.95;;;18.50;48.00;;;;;;4911784;28;98551;-68
2022/04/21 05:44:14;;;;;;;6.07;3.05;;;18.50;48.00;;;;;;4910972;28;98852;-69
2022/04/21 05:46:40;;;;;;;9.60;2.72;;;18.50;48.00;;;;;;4912170;28;100740;-69
2022/04/21 05:49:06;;;;;;;9.90;3.42;;;18.50;48.20;;;;;;4911287;28;99011;-67
2022/04/21 05:51:32;;;;;;;9.73;3.25;;;18.50;48.00;;;;;;4911639;28;99105;-69
2022/04/21 05:53:58;;;;;;;10.15;3.25;;;18.50;47.70;;;;;;4911750;28;98041;-70
2022/04/21 05:56:25;;;;;;;5.18;2.92;;;18.50;47.70;;;;;;4911366;28;100673;-69
2022/04/21 05:58:51;;;;;;;4.70;3.38;;;18.50;47.50;;;;;;4913177;28;98915;-69
2022/04/21 06:01:17;;;;;;;11.88;3.42;;;18.50;47.40;;;;;;4914944;28;99870;-69
2022/04/21 06:03:45;;;;;;;6.57;3.13;;;18.50;47.70;;;;;;4917787;28;98671;-70
2022/04/21 06:06:11;;;;;;;8.27;4.00;;;18.50;47.70;;;;;;4912093;28;100388;-70
2022/04/21 06:08:37;;;;;;;10.02;4.13;;;18.60;48.10;;;;;;4912766;28;99252;-70
2022/04/21 06:11:04;;;;;;;11.00;4.47;;;18.60;48.80;;;;;;4912687;28;98886;-69
2022/04/21 06:13:31;;;;;;;7.82;3.80;;;18.70;49.30;;;;;;4913141;28;98690;-69
2022/04/21 06:15:58;;;;;;;11.20;4.30;;;18.70;49.60;;;;;;4911731;28;100247;-69
2022/04/21 06:18:24;;;;;;;8.05;4.13;;;18.70;49.70;;;;;;4911247;28;98886;-69
2022/04/21 06:20:52;;;;;;;10.55;4.35;;;18.80;49.90;;;;;;4910931;28;98709;-68
2022/04/21 06:23:18;;;;;;;7.80;4.10;;;18.90;50.00;;;;;;4912351;28;98551;-68
2022/04/21 06:25:44;;;;;;;10.40;4.15;;;18.80;49.90;;;;;;4911197;28;99801;-69
2022/04/21 06:28:11;;;;;;;8.10;3.65;;;18.90;50.00;;;;;;4911973;28;99370;-70
2022/04/21 06:30:37;;;;;;;7.95;3.72;;;18.90;50.00;;;;;;4911872;28;98715;-69
2022/04/21 06:33:03;;;;;;;7.32;3.20;;;18.90;49.90;;;;;;4911446;28;99091;-69
2022/04/21 06:35:29;;;;;;;7.30;3.40;;;18.90;49.90;;;;;;4910473;28;100642;-69
2022/04/21 06:37:56;;;;;;;6.03;3.70;;;18.90;49.60;;;;;;4909702;28;98773;-68
2022/04/21 06:40:22;;;;;;;8.93;3.50;;;18.90;49.40;;;;;;4910419;28;99159;-69
2022/04/21 06:42:48;;;;;;;7.03;3.60;;;18.90;49.30;;;;;;4910632;28;97840;-69
2022/04/21 06:48:04;;;;;;;5.80;3.20;;;18.90;49.10;;;;;;4909549;28;99009;-68
2022/04/21 06:50:30;;;;;;;6.55;3.30;;;18.90;49.10;;;;;;4911188;28;99306;-69
2022/04/21 06:52:56;;;;;;;6.65;3.20;;;18.90;49.00;;;;;;4909278;28;98833;-68
2022/04/21 06:55:21;;;;;;;10.77;3.65;;;18.90;48.80;;;;;;4910296;28;99209;-70
2022/04/21 06:57:47;;;;;;;6.07;3.30;;;19.00;48.70;;;;;;4910143;28;99859;-67
2022/04/21 07:00:13;;;;;;;6.70;3.03;;;19.00;48.60;;;;;;4911260;28;99168;-69
2022/04/21 07:02:41;;;;;;;5.65;3.33;;;19.00;48.50;;;;;;4911584;28;99083;-69
2022/04/21 07:05:09;;;;;;;7.78;3.28;;;19.10;48.50;;;;;;4910555;28;101162;-69
2022/04/21 07:07:35;;;;;;;5.47;3.10;;;19.10;49.40;;;;;;4911269;28;99785;-69
2022/04/21 07:10:02;;;;;;;5.93;2.92;;;19.10;48.30;;;;;;4911142;28;99144;-70
2022/04/21 07:12:29;;;;;;;5.30;3.10;;;19.10;48.30;;;;;;4910523;28;99027;-68
2022/04/21 07:14:59;;;;;;;4.32;2.75;;;19.10;48.20;;;;;;4911309;28;100850;-68
2022/04/21 07:17:25;;;;;;;6.07;2.80;;;19.10;48.10;;;;;;4892682;28;103637;-70
2022/04/21 07:19:51;;;;;;;4.65;2.53;;;19.10;48.00;;;;;;4910871;28;99145;-69
2022/04/21 07:22:20;;;;;;;6.57;2.97;;;19.10;48.00;;;;;;4910757;28;99231;-70
2022/04/21 07:24:49;;;;;;;5.18;3.00;;;19.20;48.00;;;;;;4893266;28;100531;-70
2022/04/21 07:27:14;;;;;;;4.00;2.45;;;19.10;47.90;;;;;;4892833;28;98938;-69
2022/04/21 07:29:40;;;;;;;6.53;2.55;;;19.10;47.80;;;;;;4909857;28;98587;-69
2022/04/21 07:32:06;;;;;;;4.55;2.58;;;19.10;47.90;;;;;;4912245;28;98447;-68
2022/04/21 07:34:31;;;;;;;3.50;2.40;;;19.10;47.80;;;;;;4909309;28;100251;-69
2022/04/21 07:36:57;;;;;;;5.32;2.42;;;19.10;47.80;;;;;;4910662;28;99077;-70
2022/04/21 07:39:23;;;;;;;4.72;2.28;;;19.10;47.80;;;;;;4909072;28;99916;-69
2022/04/21 07:41:50;;;;;;;3.70;2.15;;;19.10;47.70;;;;;;4912096;28;98600;-70
2022/04/21 07:44:16;;;;;;;5.18;2.30;;;19.10;47.80;;;;;;4913422;28;99492;-71
2022/04/21 07:46:42;;;;;;;3.92;2.50;;;19.10;47.70;;;;;;4914609;28;99801;-68
2022/04/21 07:53:12;;;;;;;4.25;2.25;;;19.10;47.70;;;;;;4912179;28;99863;-69
2022/04/21 07:54:38;;;;;;;4.20;2.60;;;19.00;47.70;;;;;;4909901;28;100698;-70
2022/04/21 07:57:04;;;;;;;4.05;2.17;;;19.00;47.70;;;;;;4910215;28;100351;-69
2022/04/21 07:59:29;;;;;;;3.75;2.58;;;19.10;47.70;;;;;;4893596;28;98965;-70
2022/04/21 08:01:56;;;;;;;3.85;2.50;;;19.00;47.70;;;;;;4910690;28;98641;-69
2022/04/21 08:04:22;;;;;;;2.83;2.10;;;19.00;47.60;;;;;;4909569;28;100914;-70
2022/04/21 08:06:49;;;;;;;3.42;2.40;;;19.00;47.60;;;;;;4908949;28;102846;-71
2022/04/21 08:09:14;;;;;;;3.80;2.15;;;19.00;47.60;;;;;;4910817;28;98976;-68
2022/04/21 08:11:40;;;;;;;3.92;2.33;;;19.00;47.60;;;;;;4909644;28;98720;-70
2022/04/21 08:14:05;;;;;;;6.35;2.53;;;19.00;47.60;;;;;;4910170;28;99031;-68
2022/04/21 08:16:32;;;;;;;3.22;2.10;;;19.00;47.70;;;;;;4910784;28;99318;-70
2022/04/21 08:18:59;;;;;;;3.50;2.00;;;19.00;47.60;;;;;;4909024;28;98652;-68
2022/04/21 08:21:25;;;;;;;3.28;2.03;;;19.00;47.60;;;;;;4911115;28;97868;-69
2022/04/21 08:23:51;;;;;;;3.72;2.20;;;19.00;48.70;;;;;;4909812;28;101062;-69
2022/04/21 08:34:31;;;;;;;3.30;1.85;;;18.90;47.60;;;;;;4909430;28;98788;-69
2022/04/21 08:36:57;;;;;;;2.85;1.90;;;18.90;47.50;;;;;;4892734;28;102102;-69
2022/04/21 08:39:23;;;;;;;9.80;2.35;;;18.90;47.50;;;;;;4910063;28;98648;-68
2022/04/21 08:41:57;;;;;;;3.25;2.10;;;18.90;47.50;;;;;;4909798;28;99062;-69
2022/04/21 08:44:23;;;;;;;2.53;1.65;;;18.90;47.40;;;;;;4909697;28;101048;-67
2022/04/21 08:46:49;;;;;;;2.67;1.70;;;18.90;47.50;;;;;;4908785;28;100050;-67
2022/04/21 08:49:18;;;;;;;3.38;1.88;;;18.90;47.50;;;;;;4910480;28;98830;-69
2022/04/21 08:51:43;;;;;;;4.35;2.00;;;18.90;47.50;;;;;;4910293;28;98591;-67
2022/04/21 08:54:09;;;;;;;4.30;1.95;;;18.90;47.50;;;;;;4909746;28;99916;-67
2022/04/21 08:56:35;;;;;;;2.80;1.73;;;18.90;47.40;;;;;;4909765;28;100619;-67
2022/04/21 08:59:01;;;;;;;3.55;2.00;;;18.90;47.50;;;;;;4910341;28;98900;-68
2022/04/21 09:01:26;;;;;;;2.88;1.70;;;18.90;47.60;;;;;;4910500;28;99215;-68
2022/04/21 09:03:52;;;;;;;3.08;1.75;;;18.90;47.50;;;;;;4909923;28;99641;-68
2022/04/21 09:06:22;;;;;;;1.83;1.58;;;18.90;47.50;;;;;;4909431;28;98701;-69
2022/04/21 09:08:48;;;;;;;2.33;1.65;;;18.90;47.40;;;;;;4909723;28;98719;-67
2022/04/21 09:11:17;;;;;;;2.53;1.63;;;18.80;47.40;;;;;;4909110;28;98201;-68
2022/04/21 09:13:44;;;;;;;3.25;1.55;;;18.90;47.40;;;;;;4909767;28;100290;-68
2022/04/21 09:16:12;;;;;;;2.70;1.77;;;18.90;47.40;;;;;;4907483;28;99997;-69
2022/04/21 09:18:43;;;;;;;3.08;1.73;;;18.80;47.30;;;;;;4909012;28;99728;-69
2022/04/21 09:21:15;;;;;;;1.83;1.65;;;18.90;47.40;;;;;;4908555;28;99792;-70
2022/04/21 09:23:41;;;;;;;3.60;1.77;;;18.90;47.40;;;;;;4908956;28;99505;-70
2022/04/21 09:26:12;;;;;;;2.72;1.77;;;18.90;47.30;;;;;;4911483;28;98737;-71
2022/04/21 09:29:06;;;;;;;3.22;1.70;;;18.90;47.30;;;;;;4912781;28;99063;-70
2022/04/21 09:31:34;;;;;;;2.92;1.67;;;18.90;47.30;;;;;;4910411;28;98590;-68
2022/04/21 09:34:00;;;;;;;1.90;1.50;;;18.90;47.40;;;;;;4910875;28;106445;-69
2022/04/21 09:36:29;;;;;;;2.08;1.60;;;18.90;47.30;;;;;;4909678;28;98849;-69
2022/04/21 09:39:01;;;;;;;2.83;1.85;;;18.90;47.20;;;;;;4893221;28;98669;-70
2022/04/21 09:41:30;;;;;;;3.10;1.80;;;18.90;47.20;;;;;;4909502;28;99574;-70
2022/04/21 09:46:07;;;;;;;3.20;1.60;;;18.90;47.20;;;;;;4907871;28;101148;-70
2022/04/21 09:46:58;;;;;;;2.17;1.33;;;19.00;47.30;;;;;;4908601;28;100889;-69
2022/04/21 09:49:53;;;;;;;1.75;1.30;;;18.90;47.20;;;;;;4908689;28;98891;-69
2022/04/21 09:52:31;;;;;;;2.05;1.50;;;18.90;47.10;;;;;;4892040;28;99148;-70
2022/04/21 09:54:56;;;;;;;1.95;1.48;;;19.00;47.20;;;;;;4908365;28;99780;-70
2022/04/21 09:57:32;;;;;;;1.60;1.50;;;19.00;47.20;;;;;;4908916;28;98767;-70
2022/04/21 10:00:01;;;;;;;2.25;1.60;;;19.00;47.10;;;;;;4909233;28;98695;-70
2022/04/21 10:02:30;;;;;;;2.33;1.45;;;19.00;47.00;;;;;;4909089;28;98022;-69
2022/04/21 10:04:57;;;;;;;1.95;1.25;;;19.10;47.10;;;;;;4909293;28;99146;-70
2022/04/21 10:07:24;;;;;;;2.67;1.73;;;19.10;47.00;;;;;;4907424;28;98917;-70
2022/04/21 10:09:50;;;;;;;2.05;1.50;;;19.10;47.00;;;;;;4908646;28;99771;-69
2022/04/21 10:12:16;;;;;;;1.42;1.33;;;19.10;47.00;;;;;;4908251;28;98810;-70
2022/04/21 10:14:42;;;;;;;2.80;1.40;;;19.10;47.00;;;;;;4909615;28;99276;-71
2022/04/21 10:17:10;;;;;;;1.67;1.48;;;19.10;47.10;;;;;;4907896;28;99067;-70
2022/04/21 10:19:35;;;;;;;1.85;1.40;;;19.10;47.00;;;;;;4908432;28;98688;-70
2022/04/21 10:22:03;;;;;;;2.65;1.35;;;19.20;47.10;;;;;;4908007;28;99084;-70
2022/04/21 10:24:32;;;;;;;2.35;1.40;;;19.20;47.00;;;;;;4907975;28;100391;-69
2022/04/21 10:26:58;;;;;;;1.75;1.38;;;19.20;47.10;;;;;;4909678;28;100552;-69
2022/04/21 10:29:27;;;;;;;2.15;1.55;;;19.20;47.00;;;;;;4911068;28;98572;-68
2022/04/21 10:32:00;;;;;;;2.40;1.40;;;19.20;46.90;;;;;;4912315;28;98522;-68
2022/04/21 10:34:37;;;;;;;1.50;1.40;;;19.20;46.90;;;;;;4910536;28;101055;-71
2022/04/21 10:37:20;;;;;;;1.85;1.30;;;19.20;47.00;;;;;;4910912;28;100605;-70
2022/04/21 10:40:07;;;;;;;1.92;1.30;;;19.20;47.00;;;;;;4911618;28;98648;-70
2022/04/21 10:42:51;;;;;;;2.25;1.50;;;19.20;47.00;;;;;;4912155;28;98800;-70
2022/04/21 10:45:22;;;;;;;1.60;1.35;;;19.20;46.90;;;;;;4912016;28;99125;-70
2022/04/21 10:48:08;;;;;;;2.45;1.40;;;19.30;47.00;;;;;;4910766;28;99038;-70
2022/04/21 10:50:37;;;;;;;2.33;1.50;;;19.30;47.00;;;;;;4893591;28;99071;-68
2022/04/21 10:58:36;;;;;;;1.50;1.40;;;19.30;47.00;;;;;;4910406;28;98773;-70
2022/04/21 11:01:19;;;;;;;2.13;1.48;;;19.30;47.00;;;;;;4911813;28;99688;-71
2022/04/21 11:04:03;;;;;;;1.38;1.27;;;19.30;46.90;;;;;;4894287;28;99108;-70
2022/04/21 11:06:39;;;;;;;1.83;1.38;;;19.30;46.90;;;;;;4910458;28;100236;-69
2022/04/21 11:09:04;;;;;;;1.55;1.30;;;19.30;46.90;;;;;;4912646;28;100148;-68
2022/04/21 11:11:52;;;;;;;2.03;1.40;;;19.30;46.90;;;;;;4915415;28;98502;-70
2022/04/21 11:14:32;;;;;;;2.30;1.30;;;19.30;46.80;;;;;;4913924;28;98711;-70
2022/04/21 11:16:59;;;;;;;3.00;1.40;;;19.30;46.80;;;;;;4910272;28;100628;-70
2022/04/21 11:19:50;;;;;;;1.30;1.20;;;19.30;46.90;;;;;;4911289;28;100000;-68
2022/04/21 11:22:36;;;;;;;1.23;1.13;;;19.40;46.80;;;;;;4911718;28;99258;-69
2022/04/21 11:25:03;;;;;;;2.50;1.40;;;19.30;46.70;;;;;;4911002;28;99124;-70
2022/04/21 11:27:31;;;;;;;1.73;1.20;;;19.30;46.70;;;;;;4910069;28;101026;-68
2022/04/21 11:30:02;;;;;;;1.42;1.20;;;19.30;46.60;;;;;;4911095;28;100888;-70
2022/04/21 11:32:28;;;;;;;1.67;1.20;;;19.40;46.60;;;;;;4910731;28;98966;-68
2022/04/21 11:35:03;;;;;;;1.83;1.30;;;19.40;46.60;;;;;;4910454;28;98847;-69
2022/04/21 11:37:45;;;;;;;1.55;1.30;;;19.40;46.60;;;;;;4909719;28;99216;-70
2022/04/21 11:40:22;;;;;;;1.27;1.17;;;19.40;46.60;;;;;;4909595;28;99777;-68
2022/04/21 11:42:51;;;;;;;1.42;1.08;;;19.30;46.60;;;;;;4910437;28;98703;-69
2022/04/21 11:45:18;;;;;;;2.25;1.23;;;19.40;46.70;;;;;;4911662;28;98155;-69
2022/04/21 11:47:44;;;;;;;1.85;1.05;;;19.30;46.60;;;;;;4910069;28;99598;-68
2022/04/21 11:50:13;;;;;;;1.65;1.27;;;19.40;46.70;;;;;;4911260;28;100362;-68
2022/04/21 11:52:42;;;;;;;1.52;1.30;;;19.40;46.80;;;;;;4909412;28;99922;-69
2022/04/21 11:55:12;;;;;;;1.88;1.30;;;19.30;46.60;;;;;;4910790;28;98944;-69
2022/04/21 11:57:44;;;;;;;1.50;1.40;;;19.40;46.60;;;;;;4910299;28;100719;-69
2022/04/21 12:00:11;;;;;;;2.53;1.13;;;19.40;46.70;;;;;;4910958;28;99953;-70
2022/04/21 12:08:11;;;;;;;1.58;1.10;;;19.30;46.80;;;;;;4909560;28;98745;-70
2022/04/21 12:10:37;;;;;;;2.20;1.20;;;19.40;46.80;;;;;;4910743;28;99140;-70
2022/04/21 12:13:04;;;;;;;1.30;1.00;;;19.30;46.90;;;;;;4910566;28;99090;-69
2022/04/21 12:15:31;;;;;;;1.63;1.20;;;19.40;46.90;;;;;;4910215;28;99121;-70
2022/04/21 12:18:04;;;;;;;1.67;1.10;;;19.40;47.90;;;;;;4910330;28;100808;-68
2022/04/21 12:20:30;;;;;;;1.60;1.13;;;19.40;46.90;;;;;;4907875;28;99655;-68
2022/04/21 12:22:57;;;;;;;1.67;1.10;;;19.40;47.00;;;;;;4909510;28;101054;-70
2022/04/21 12:25:34;;;;;;;1.77;1.10;;;19.40;47.00;;;;;;4909902;28;99144;-69
2022/04/21 12:28:04;;;;;;;1.35;1.08;;;19.40;47.00;;;;;;4909980;28;100853;-70
2022/04/21 12:30:30;;;;;;;1.60;1.10;;;19.40;47.00;;;;;;4909396;28;101620;-70
2022/04/21 12:32:56;;;;;;;1.65;1.30;;;19.40;47.00;;;;;;4910853;28;99270;-71
2022/04/21 12:35:46;;;;;;;1.73;1.17;;;19.40;47.00;;;;;;4910719;28;98002;-71
2022/04/21 12:40:59;;;;;;;1.30;1.20;;;19.40;47.00;;;;;;4909168;28;99192;-68
2022/04/21 12:43:30;;;;;;;1.75;1.17;;;19.40;47.00;;;;;;4910181;28;99808;-69
2022/04/21 12:45:58;;;;;;;1.58;1.08;;;19.40;46.90;;;;;;4912105;28;98528;-69
2022/04/21 12:48:28;;;;;;;1.58;1.20;;;19.40;46.90;;;;;;4910564;28;99043;-70
2022/04/21 12:50:56;;;;;;;1.23;1.10;;;19.40;46.90;;;;;;4910301;28;99036;-71
2022/04/21 12:53:36;;;;;;;1.50;1.00;;;19.40;46.90;;;;;;4913047;28;98504;-69
2022/04/21 12:56:13;;;;;;;1.48;1.13;;;19.40;46.80;;;;;;4915546;28;99105;-70
2022/04/21 12:58:38;;;;;;;1.27;1.13;;;19.50;46.90;;;;;;4909709;28;100743;-68
2022/04/21 13:01:05;;;;;;;1.63;1.20;;;19.40;46.80;;;;;;4911444;28;99524;-69
2022/04/21 13:03:32;;;;;;;1.20;1.10;;;19.50;46.90;;;;;;4909381;28;98956;-69
2022/04/21 13:05:59;;;;;;;1.20;1.02;;;19.50;46.90;;;;;;4910150;28;98692;-69
2022/04/21 13:08:27;;;;;;;2.22;1.02;;;19.50;46.90;;;;;;4908920;28;100933;-69
2022/04/21 13:10:57;;;;;;;1.58;1.10;;;19.50;46.90;;;;;;4909386;28;101198;-70
2022/04/21 13:13:23;;;;;;;1.60;1.10;;;19.50;46.80;;;;;;4909780;28;98556;-69
2022/04/21 13:15:50;;;;;;;1.00;0.90;;;19.50;46.90;;;;;;4909943;28;98669;-69
2022/04/21 13:18:16;;;;;;;1.40;1.10;;;19.50;46.90;;;;;;4910437;28;99063;-68
2022/04/21 13:23:27;;;;;;;2.45;1.00;;;19.50;46.80;;;;;;4911043;28;98916;-71
2022/04/21 13:25:54;;;;;;;1.27;1.00;;;19.50;46.90;;;;;;4910969;28;97861;-70
2022/04/21 13:28:20;;;;;;;1.10;1.00;;;19.50;46.80;;;;;;4909518;28;100258;-71
2022/04/21 13:30:45;;;;;;;1.33;1.05;;;19.50;46.80;;;;;;4909845;28;99905;-70
2022/04/21 13:33:23;;;;;;;1.58;1.05;;;19.50;46.80;;;;;;4909961;28;99413;-70
2022/04/21 13:35:50;;;;;;;2.15;1.02;;;19.50;46.70;;;;;;4909308;28;99163;-70
2022/04/21 13:38:16;;;;;;;1.48;1.10;;;19.50;46.80;;;;;;4909371;28;99146;-70
2022/04/21 13:40:43;;;;;;;1.40;1.08;;;19.50;46.80;;;;;;4908345;28;100072;-70
2022/04/21 13:43:08;;;;;;;1.60;1.00;;;19.50;46.80;;;;;;4909545;28;98882;-70
2022/04/21 13:45:38;;;;;;;1.40;1.15;;;19.50;46.70;;;;;;4909819;28;99071;-70
2022/04/21 13:48:05;;;;;;;1.27;1.17;;;19.60;46.80;;;;;;4908496;28;99813;-70
2022/04/21 13:50:30;;;;;;;1.55;1.15;;;19.60;46.80;;;;;;4909874;28;99792;-71
2022/04/21 13:52:56;;;;;;;1.40;1.02;;;19.50;46.70;;;;;;4908952;28;99199;-71
2022/04/21 13:55:22;;;;;;;1.10;0.90;;;19.60;47.00;;;;;;4909825;28;99007;-70
2022/04/21 13:57:47;;;;;;;1.13;1.02;;;19.50;46.90;;;;;;4908064;28;110903;-70
2022/04/21 14:00:13;;;;;;;1.10;1.00;;;19.60;47.00;;;;;;4909066;28;100961;-70
2022/04/21 14:02:39;;;;;;;1.13;1.00;;;19.50;47.00;;;;;;4912359;28;99023;-69
2022/04/21 14:05:05;;;;;;;1.88;0.85;;;19.60;47.00;;;;;;4913129;28;98564;-70
2022/04/21 14:07:31;;;;;;;1.27;1.05;;;19.50;47.00;;;;;;4912083;28;100214;-70
2022/04/21 14:09:56;;;;;;;1.55;1.00;;;19.60;47.00;;;;;;4895841;28;101594;-70
2022/04/21 14:12:22;;;;;;;1.27;1.17;;;19.60;47.00;;;;;;4912783;28;99042;-71
2022/04/21 14:14:48;;;;;;;1.73;0.98;;;19.60;47.00;;;;;;4913054;28;98473;-72
2022/04/21 14:17:15;;;;;;;2.53;1.40;;;19.50;47.00;;;;;;4911922;28;99194;-70
2022/04/21 14:19:41;;;;;;;1.30;1.00;;;19.60;47.00;;;;;;4912117;28;99038;-71
2022/04/21 14:22:06;;;;;;;1.10;1.00;;;19.60;47.00;;;;;;4911902;28;99892;-70
2022/04/21 14:24:32;;;;;;;2.25;1.35;;;19.60;47.00;;;;;;4912892;28;98863;-70
2022/04/21 14:26:59;;;;;;;1.38;1.20;;;19.60;47.00;;;;;;4910999;28;98987;-69
2022/04/21 14:29:25;;;;;;;1.50;1.00;;;19.60;46.90;;;;;;4894682;28;101845;-70
2022/04/21 14:31:50;;;;;;;1.33;1.08;;;19.60;47.10;;;;;;4911974;28;98665;-71
2022/04/21 14:34:16;;;;;;;1.33;0.88;;;19.60;47.00;;;;;;4895148;28;98615;-71
2022/04/21 14:36:42;;;;;;;2.65;1.17;;;19.60;47.00;;;;;;4913802;28;99384;-71
2022/04/21 14:44:37;;;;;;;1.60;1.20;;;19.60;47.10;;;;;;4913507;28;98906;-71
2022/04/21 14:47:03;;;;;;;2.22;1.10;;;19.60;47.10;;;;;;4911004;28;100932;-71